Naval Base, Virginia
Current Conditions -  °F | °C
As of 11:59 PM on Thursday 27 Nov 2014 (Local Time) from KNGU Reporting Station
Scattered Clouds Scattered Clouds  
Wind Chill: 35°   Ceiling: Unl
Heat Index: 41°   Visibility: 10mi
Dew Point: 32°   Wind: 10mph
Humidity: 70%   Direction: 320°NW
Pressure: 30.2"   Gusts: NA
Location:  36.9343°N, 76.284°W
Report Text: KNGU 280459Z AUTO 32009KT 10SM SCT075 05/00 A3020 RMK AO2 SLP226 T00500000 400830039
Loading
Personal Weather Stations






























Interactive Weather Map New forecast layout! Learn more

10-Day Weather Forecast

Advertisements
Track Severe Weather on mobile